Record high temperature 35.7°C Record low temperature -6.7°C Record high gust 54 mph Record high average 35.8 mph Record daily rain 5.08 in. Record low windchill -13.5°C Record high barometer 1045.9 hPa Record low barometer 970.7 hPa
Daily high pressure 1016.7 mb Daily low pressure 1012.6 mb Daily low windchill 16.9°C Daily high heat index 21.1°C Daily high gust speed 9.2 mph SE Daily high average speed 6.1 mph SSE
Forecast: increasing clouds with little temp. change.
Weather Data
LAST READING AT TIME: 23:15 DATE: 20 July 2018, time of next update: 23:30
Current WeatherNight time/Dry Current Temperature 16.9°C (62.5°F), Apparent temp 18.2°C
Maximum Temperature (since midnight)21.1°C at: 10:02 Minimum Temperature (since midnight)16.9°C at: 22:22
Average windspeed (ten minute)0.0 mph Wind Direction (ten minute)S (180°)
Windchill Temperature 16.9°C Maximum Gust (last hour) 1 mph at: 22:45
Maximum Gust (since midnight) 9 mph at: 09:08 Maximum 1 minute average (since midnight)6.1 mph at: 08:37
Rainfall (last hour)0.00 in. (0.0 mm) Rainfall (since midnight)0.22 in. (5.6 mm) at 17:54
Rainfall This month 0.35 in. (8.9 mm) Rainfall To date this year 13.19 in. (335.1 mm)
Maximum rain per minute (last hour)0.00 in/min Maximum rain per hour (last 6 hours)0.01 in/hour
Yesterdays rainfall 0.00 in DewPoint 14.6°C (Wet Bulb :15.6°C )
Humidity 86 %, Humidex 20.7°C Barometer corrected to msl1013.1 mb
Pressure change -0.1 mb (last hour) Trend (last hour)STEADY
Pressure change (last 12 hours)-1.6 mb Pressure change (last 6 hours)-0.3 mb
Current Indoor Temp. 21.9°C
Current Indoor Hum. 60%
Current solar 0 W/Mē Current UV0.0
Maximum solar (since midnight) 271 W/Mē Maximum UV (since midnight)2.2
Current 00:07 hours of sunshine today, current sky: Night time/Dry
Sunshine hours for the year: 599:31 hrs Sunshine hours for the month: 91:52 hrs
Current evapotranspiration 0.09 inches per day. Yesterday's reading 0.21

This page is updated from recent data collected by a DAVIS VANTAGE PRO weather station Use the Reload or Refresh facility on your browser to retrieve the latest data.


Click here for the last 24 hour graph
Click here for the last 48 hour graph
Click here for the last 72 hour graph
Click here for the month to date graph


Weather report/Warning/Metars

London / Gatwick Airport, United Kingdom (EGKK) 51-09N 000-11W 0M
Jul 20, 2018 - 05:50 PM EDT / 2018.07.20 2150 UTC
Wind: from the WSW (250 degrees) at 3 MPH (3 KT):0
Visibility: greater than 7 mile(s):0
Temperature: 62 F (17 C)
Dew Point: 59 F (15 C)
Relative Humidity: 88%
Pressure (altimeter): 29.91 in. Hg (1013 hPa)
ob: EGKK 202150Z 25003KT CAVOK 17/15 Q1013
cycle: 22
London City Airport, United Kingdom (EGLC) 51-30N 000-30W
Jul 20, 2018 - 05:50 PM EDT / 2018.07.20 2150 UTC
Wind: from the SW (230 degrees) at 6 MPH (5 KT) (direction variable):0
Visibility: greater than 7 mile(s):0
Temperature: 68 F (20 C)
Dew Point: 57 F (14 C)
Relative Humidity: 68%
Pressure (altimeter): 29.91 in. Hg (1013 hPa)
ob: EGLC 202150Z AUTO 23005KT 190V260 9999 NCD 20/14 Q1013
cycle: 22
London / Heathrow Airport, United Kingdom (EGLL) 51-29N 000-27W 0M
Jul 20, 2018 - 05:50 PM EDT / 2018.07.20 2150 UTC
Wind: from the SW (220 degrees) at 8 MPH (7 KT):0
Visibility: greater than 7 mile(s):0
Sky conditions: mostly cloudy
Weather: Cumulonimbus clouds observed
Temperature: 66 F (19 C)
Dew Point: 59 F (15 C)
Relative Humidity: 77%
Pressure (altimeter): 29.91 in. Hg (1013 hPa)
ob: EGLL 202150Z AUTO 22007KT 9999 BKN041/// //////CB 19/15 Q1013 TEMPO SHRA
cycle: 22
Southend-On-Sea , United Kingdom (EGMC) 51-34N 000-42E
Jul 20, 2018 - 05:50 PM EDT / 2018.07.20 2150 UTC
Wind: from the SW (220 degrees) at 5 MPH (4 KT):0
Visibility: greater than 7 mile(s):0
Sky conditions: mostly clear
Weather: rain
Temperature: 64 F (18 C)
Dew Point: 60 F (16 C)
Relative Humidity: 88%
Pressure (altimeter): 29.91 in. Hg (1013 hPa)
ob: EGMC 202150Z 22004KT 9999 RA FEW048 18/16 Q1013
cycle: 22
Lydd Airport , United Kingdom (EGMD) 50-57N 000-56E
Jul 20, 2018 - 05:50 PM EDT / 2018.07.20 2150 UTC
Wind: from the NNW (340 degrees) at 3 MPH (3 KT):0
Visibility: 4 mile(s):0
Temperature: 62 F (17 C)
Dew Point: 60 F (16 C)
Relative Humidity: 93%
Pressure (altimeter): 29.91 in. Hg (1013 hPa)
ob: EGMD 202150Z AUTO 34003KT 8000 NCD 17/16 Q1013
cycle: 22
Biggin Hill , United Kingdom (EGKB) 51-19N 000-02E
Jul 20, 2018 - 05:20 PM EDT / 2018.07.20 2120 UTC
Wind: from the S (190 degrees) at 7 MPH (6 KT):0
Visibility: greater than 7 mile(s):0
Temperature: 60 F (16 C)
Dew Point: 57 F (14 C)
Relative Humidity: 87%
Pressure (altimeter): 29.94 in. Hg (1014 hPa)
ob: EGKB 202120Z 19006KT CAVOK 16/14 Q1014 
cycle: 21
Amundsen-Scott South Pole Station, Antarctica (NZSP) 90-00S 00-00E 2835M
Jul 20, 2018 - 01:50 PM EDT / 2018.07.20 1750 UTC
Wind: from the ENE (060 degrees) at 8 MPH (7 KT):0
Visibility: 1 mile(s):0
Sky conditions: mostly cloudy
Weather: ice crystals
Temperature: -68 F (-56 C)
Windchill: -97 F (-72 C):2
Pressure (altimeter): 28.53 in. Hg (966 hPa)
ob: NZSP 201750Z 06007KT 2400 IC FEW010 SCT030 BKN100 M56/ A2853 RMK CLN AIR 06009KT ALL WNDS GRID 
cycle: 18